sensor_id;sensor_type;location;lat;lon;timestamp;pressure;altitude;pressure_sealevel;temperature;humidity
22311;BME280;11323;49.610;11.016;2023-05-02T00:00:14;98158.59;;;18.28;56.94
22311;BME280;11323;49.610;11.016;2023-05-02T00:05:15;98145.78;;;18.25;56.89
22311;BME280;11323;49.610;11.016;2023-05-02T00:10:16;98148.63;;;18.23;57.05
22311;BME280;11323;49.610;11.016;2023-05-02T00:15:16;98142.09;;;18.19;57.22
22311;BME280;11323;49.610;11.016;2023-05-02T00:20:17;98139.06;;;18.15;56.74
22311;BME280;11323;49.610;11.016;2023-05-02T00:25:17;98141.69;;;18.15;56.95
22311;BME280;11323;49.610;11.016;2023-05-02T00:30:17;98138.41;;;18.13;56.94
22311;BME280;11323;49.610;11.016;2023-05-02T00:35:18;98134.34;;;18.11;57.14
22311;BME280;11323;49.610;11.016;2023-05-02T00:40:19;98139.19;;;18.07;57.04
22311;BME280;11323;49.610;11.016;2023-05-02T00:45:19;98126.00;;;18.07;57.14
22311;BME280;11323;49.610;11.016;2023-05-02T00:50:20;98129.84;;;18.04;57.45
22311;BME280;11323;49.610;11.016;2023-05-02T00:55:20;98136.13;;;18.03;57.34
22311;BME280;11323;49.610;11.016;2023-05-02T01:05:54;98121.28;;;18.02;57.22
22311;BME280;11323;49.610;11.016;2023-05-02T01:11:03;98130.22;;;18.01;57.02
22311;BME280;11323;49.610;11.016;2023-05-02T01:16:06;98130.63;;;17.98;57.25
22311;BME280;11323;49.610;11.016;2023-05-02T01:21:08;98137.88;;;17.96;57.22
22311;BME280;11323;49.610;11.016;2023-05-02T01:26:14;98134.59;;;17.94;57.31
22311;BME280;11323;49.610;11.016;2023-05-02T01:31:16;98140.66;;;17.88;57.00
22311;BME280;11323;49.610;11.016;2023-05-02T01:36:18;98128.47;;;17.87;57.26
22311;BME280;11323;49.610;11.016;2023-05-02T01:41:19;98129.47;;;17.86;57.12
22311;BME280;11323;49.610;11.016;2023-05-02T01:46:20;98127.41;;;17.81;57.41
22311;BME280;11323;49.610;11.016;2023-05-02T01:51:22;98149.13;;;17.83;57.35
22311;BME280;11323;49.610;11.016;2023-05-02T01:56:27;98151.94;;;17.82;57.59
22311;BME280;11323;49.610;11.016;2023-05-02T02:01:28;98151.53;;;17.78;57.37
22311;BME280;11323;49.610;11.016;2023-05-02T02:06:30;98157.16;;;17.75;57.57
22311;BME280;11323;49.610;11.016;2023-05-02T02:11:35;98170.34;;;17.75;57.57
22311;BME280;11323;49.610;11.016;2023-05-02T02:16:37;98169.28;;;17.69;57.78
22311;BME280;11323;49.610;11.016;2023-05-02T02:21:42;98177.81;;;17.71;57.71
22311;BME280;11323;49.610;11.016;2023-05-02T02:26:43;98180.22;;;17.66;57.65
22311;BME280;11323;49.610;11.016;2023-05-02T02:31:43;98189.75;;;17.67;57.64
22311;BME280;11323;49.610;11.016;2023-05-02T02:36:48;98186.66;;;17.64;57.67
22311;BME280;11323;49.610;11.016;2023-05-02T02:41:57;98178.16;;;17.62;57.92
22311;BME280;11323;49.610;11.016;2023-05-02T02:52:16;98196.53;;;17.55;57.89
22311;BME280;11323;49.610;11.016;2023-05-02T02:57:25;98194.91;;;17.54;57.78
22311;BME280;11323;49.610;11.016;2023-05-02T03:02:30;98209.72;;;17.55;57.84
22311;BME280;11323;49.610;11.016;2023-05-02T03:07:31;98211.06;;;17.51;57.85
22311;BME280;11323;49.610;11.016;2023-05-02T03:12:34;98219.19;;;17.49;58.21
22311;BME280;11323;49.610;11.016;2023-05-02T03:17:36;98226.25;;;17.49;58.32
22311;BME280;11323;49.610;11.016;2023-05-02T03:22:36;98234.72;;;17.44;57.77
22311;BME280;11323;49.610;11.016;2023-05-02T03:27:37;98241.63;;;17.45;58.00
22311;BME280;11323;49.610;11.016;2023-05-02T03:32:40;98227.25;;;17.48;57.83
22311;BME280;11323;49.610;11.016;2023-05-02T03:37:41;98240.44;;;17.48;57.93
22311;BME280;11323;49.610;11.016;2023-05-02T03:42:42;98250.16;;;17.47;58.03
22311;BME280;11323;49.610;11.016;2023-05-02T03:47:54;98245.69;;;17.48;58.04
22311;BME280;11323;49.610;11.016;2023-05-02T03:52:55;98254.00;;;17.44;57.73
22311;BME280;11323;49.610;11.016;2023-05-02T03:58:05;98266.69;;;17.41;57.96
22311;BME280;11323;49.610;11.016;2023-05-02T04:03:05;98268.31;;;17.42;58.09
22311;BME280;11323;49.610;11.016;2023-05-02T04:08:08;98278.06;;;17.41;58.16
22311;BME280;11323;49.610;11.016;2023-05-02T04:13:10;98279.25;;;17.39;58.03
22311;BME280;11323;49.610;11.016;2023-05-02T04:18:14;98284.34;;;17.40;57.83
22311;BME280;11323;49.610;11.016;2023-05-02T04:23:15;98280.81;;;17.33;57.95
22311;BME280;11323;49.610;11.016;2023-05-02T04:28:17;98301.13;;;17.39;57.82
22311;BME280;11323;49.610;11.016;2023-05-02T04:33:18;98294.59;;;17.35;57.98
22311;BME280;11323;49.610;11.016;2023-05-02T04:38:19;98296.22;;;17.36;57.83
22311;BME280;11323;49.610;11.016;2023-05-02T04:43:22;98310.59;;;17.34;58.08
22311;BME280;11323;49.610;11.016;2023-05-02T04:48:29;98312.03;;;17.36;57.69
22311;BME280;11323;49.610;11.016;2023-05-02T04:53:29;98313.03;;;17.35;58.00
22311;BME280;11323;49.610;11.016;2023-05-02T04:58:30;98315.84;;;17.34;58.08
22311;BME280;11323;49.610;11.016;2023-05-02T05:03:35;98326.19;;;17.35;57.66
22311;BME280;11323;49.610;11.016;2023-05-02T05:08:35;98341.56;;;17.32;57.63
22311;BME280;11323;49.610;11.016;2023-05-02T05:13:37;98349.66;;;17.30;57.95
22311;BME280;11323;49.610;11.016;2023-05-02T05:18:39;98349.66;;;17.30;57.94
22311;BME280;11323;49.610;11.016;2023-05-02T05:23:40;98345.38;;;17.29;58.03
22311;BME280;11323;49.610;11.016;2023-05-02T05:28:47;98344.75;;;17.27;57.64
22311;BME280;11323;49.610;11.016;2023-05-02T05:33:50;98350.38;;;17.24;57.69
22311;BME280;11323;49.610;11.016;2023-05-02T05:38:51;98364.19;;;17.26;57.64
22311;BME280;11323;49.610;11.016;2023-05-02T05:43:52;98369.44;;;17.26;57.44
22311;BME280;11323;49.610;11.016;2023-05-02T05:48:53;98372.44;;;17.23;57.67
22311;BME280;11323;49.610;11.016;2023-05-02T05:53:54;98385.44;;;17.24;57.81
22311;BME280;11323;49.610;11.016;2023-05-02T05:58:55;98392.50;;;17.24;57.95
22311;BME280;11323;49.610;11.016;2023-05-02T06:03:56;98397.97;;;17.22;57.77
22311;BME280;11323;49.610;11.016;2023-05-02T06:08:56;98403.59;;;17.19;58.10
22311;BME280;11323;49.610;11.016;2023-05-02T06:13:57;98411.69;;;17.18;57.94
22311;BME280;11323;49.610;11.016;2023-05-02T06:18:58;98410.84;;;17.17;57.99
22311;BME280;11323;49.610;11.016;2023-05-02T06:23:58;98432.75;;;17.18;57.66
22311;BME280;11323;49.610;11.016;2023-05-02T06:28:58;98440.00;;;17.16;57.80
22311;BME280;11323;49.610;11.016;2023-05-02T06:33:59;98451.19;;;17.18;58.20
22311;BME280;11323;49.610;11.016;2023-05-02T06:38:59;98455.91;;;17.07;57.16
22311;BME280;11323;49.610;11.016;2023-05-02T06:44:00;98461.09;;;16.69;58.29
22311;BME280;11323;49.610;11.016;2023-05-02T06:49:00;98469.31;;;16.43;58.09
22311;BME280;11323;49.610;11.016;2023-05-02T06:54:01;98473.50;;;15.97;57.74
22311;BME280;11323;49.610;11.016;2023-05-02T06:59:01;98477.22;;;15.55;59.59
22311;BME280;11323;49.610;11.016;2023-05-02T07:04:02;98489.81;;;15.76;58.59
22311;BME280;11323;49.610;11.016;2023-05-02T07:09:04;98490.09;;;15.98;58.94
22311;BME280;11323;49.610;11.016;2023-05-02T07:14:05;98494.44;;;16.22;58.39
22311;BME280;11323;49.610;11.016;2023-05-02T07:19:05;98493.53;;;16.38;58.16
22311;BME280;11323;49.610;11.016;2023-05-02T07:24:06;98504.00;;;16.46;58.23
22311;BME280;11323;49.610;11.016;2023-05-02T07:29:06;98508.25;;;16.47;58.40
22311;BME280;11323;49.610;11.016;2023-05-02T07:34:07;98508.72;;;16.51;57.72
22311;BME280;11323;49.610;11.016;2023-05-02T07:39:08;98524.69;;;16.49;57.79
22311;BME280;11323;49.610;11.016;2023-05-02T07:44:08;98517.16;;;16.46;57.85
22311;BME280;11323;49.610;11.016;2023-05-02T07:49:09;98520.44;;;16.48;57.76
22311;BME280;11323;49.610;11.016;2023-05-02T07:54:20;98522.06;;;16.49;57.55
22311;BME280;11323;49.610;11.016;2023-05-02T07:59:20;98536.22;;;16.48;57.94
22311;BME280;11323;49.610;11.016;2023-05-02T08:04:21;98531.38;;;16.29;58.14
22311;BME280;11323;49.610;11.016;2023-05-02T08:09:21;98549.41;;;16.40;57.83
22311;BME280;11323;49.610;11.016;2023-05-02T08:14:22;98543.63;;;16.45;57.74
22311;BME280;11323;49.610;11.016;2023-05-02T08:19:22;98542.78;;;16.52;58.31
22311;BME280;11323;49.610;11.016;2023-05-02T08:24:23;98544.38;;;16.62;58.99
22311;BME280;11323;49.610;11.016;2023-05-02T08:29:23;98554.50;;;16.73;58.59
22311;BME280;11323;49.610;11.016;2023-05-02T08:34:24;98560.69;;;16.80;58.81
22311;BME280;11323;49.610;11.016;2023-05-02T08:39:24;98550.28;;;16.87;59.10
22311;BME280;11323;49.610;11.016;2023-05-02T08:44:25;98556.53;;;16.94;59.15
22311;BME280;11323;49.610;11.016;2023-05-02T08:49:28;98566.50;;;17.07;59.35
22311;BME280;11323;49.610;11.016;2023-05-02T08:54:30;98566.75;;;17.12;59.46
22311;BME280;11323;49.610;11.016;2023-05-02T08:59:31;98567.06;;;17.18;59.52
22311;BME280;11323;49.610;11.016;2023-05-02T09:04:33;98576.44;;;17.20;59.57
22311;BME280;11323;49.610;11.016;2023-05-02T09:09:33;98574.25;;;17.24;59.64
22311;BME280;11323;49.610;11.016;2023-05-02T09:14:34;98578.19;;;17.28;59.38
22311;BME280;11323;49.610;11.016;2023-05-02T09:19:34;98577.00;;;17.31;59.55
22311;BME280;11323;49.610;11.016;2023-05-02T09:24:36;98588.00;;;17.34;58.88
22311;BME280;11323;49.610;11.016;2023-05-02T09:29:37;98581.13;;;17.33;58.99
22311;BME280;11323;49.610;11.016;2023-05-02T09:34:55;98585.56;;;17.33;58.72
22311;BME280;11323;49.610;11.016;2023-05-02T09:40:05;98586.38;;;17.33;58.71
22311;BME280;11323;49.610;11.016;2023-05-02T09:45:06;98589.63;;;17.35;58.25
22311;BME280;11323;49.610;11.016;2023-05-02T09:50:07;98587.00;;;17.35;58.14
22311;BME280;11323;49.610;11.016;2023-05-02T09:55:20;98588.84;;;17.35;58.35
22311;BME280;11323;49.610;11.016;2023-05-02T10:00:21;98590.81;;;17.33;58.13
22311;BME280;11323;49.610;11.016;2023-05-02T10:05:24;98589.63;;;17.35;58.09
22311;BME280;11323;49.610;11.016;2023-05-02T10:10:25;98603.47;;;17.37;57.70
22311;BME280;11323;49.610;11.016;2023-05-02T10:15:28;98601.16;;;17.34;57.91
22311;BME280;11323;49.610;11.016;2023-05-02T10:20:34;98594.09;;;17.35;57.65
22311;BME280;11323;49.610;11.016;2023-05-02T10:25:35;98595.75;;;17.36;58.64
22311;BME280;11323;49.610;11.016;2023-05-02T10:30:36;98603.78;;;17.42;59.88
22311;BME280;11323;49.610;11.016;2023-05-02T10:35:38;98587.78;;;17.44;59.79
22311;BME280;11323;49.610;11.016;2023-05-02T10:40:47;98593.50;;;17.48;59.78
22311;BME280;11323;49.610;11.016;2023-05-02T10:45:48;98576.69;;;17.49;59.37
22311;BME280;11323;49.610;11.016;2023-05-02T10:50:56;98580.28;;;17.56;59.95
22311;BME280;11323;49.610;11.016;2023-05-02T10:56:20;98571.34;;;17.57;60.13
22311;BME280;11323;49.610;11.016;2023-05-02T11:06:33;98575.00;;;17.56;60.03
22311;BME280;11323;49.610;11.016;2023-05-02T11:11:38;98577.00;;;17.54;59.58
22311;BME280;11323;49.610;11.016;2023-05-02T11:22:31;98589.53;;;17.52;59.18
22311;BME280;11323;49.610;11.016;2023-05-02T11:38:00;98585.78;;;17.46;59.22
22311;BME280;11323;49.610;11.016;2023-05-02T11:43:13;98581.31;;;17.47;58.73
22311;BME280;11323;49.610;11.016;2023-05-02T11:48:18;98577.03;;;17.45;58.53
22311;BME280;11323;49.610;11.016;2023-05-02T11:53:21;98577.69;;;17.48;58.41
22311;BME280;11323;49.610;11.016;2023-05-02T11:58:24;98584.13;;;17.45;58.35
22311;BME280;11323;49.610;11.016;2023-05-02T12:03:31;98584.94;;;17.45;59.38
22311;BME280;11323;49.610;11.016;2023-05-02T12:08:32;98595.97;;;17.49;59.38
22311;BME280;11323;49.610;11.016;2023-05-02T12:13:32;98598.41;;;17.51;59.92
22311;BME280;11323;49.610;11.016;2023-05-02T12:18:33;98605.34;;;17.52;59.66
22311;BME280;11323;49.610;11.016;2023-05-02T12:23:33;98599.88;;;17.53;59.96
22311;BME280;11323;49.610;11.016;2023-05-02T12:28:47;98609.25;;;17.56;59.86
22311;BME280;11323;49.610;11.016;2023-05-02T12:33:48;98640.97;;;17.63;60.43
22311;BME280;11323;49.610;11.016;2023-05-02T12:38:57;98638.81;;;17.66;60.02
22311;BME280;11323;49.610;11.016;2023-05-02T12:43:59;98653.91;;;17.72;60.57
22311;BME280;11323;49.610;11.016;2023-05-02T12:49:03;98649.75;;;17.78;60.18
22311;BME280;11323;49.610;11.016;2023-05-02T12:54:04;98651.19;;;17.81;60.11
22311;BME280;11323;49.610;11.016;2023-05-02T12:59:06;98666.41;;;17.79;60.11
22311;BME280;11323;49.610;11.016;2023-05-02T13:04:07;98668.00;;;17.80;59.71
22311;BME280;11323;49.610;11.016;2023-05-02T13:09:07;98672.66;;;17.78;59.95
22311;BME280;11323;49.610;11.016;2023-05-02T13:14:07;98682.38;;;17.77;59.61
22311;BME280;11323;49.610;11.016;2023-05-02T13:19:10;98685.19;;;17.75;59.46
22311;BME280;11323;49.610;11.016;2023-05-02T13:24:10;98672.03;;;17.75;59.19
22311;BME280;11323;49.610;11.016;2023-05-02T13:29:12;98645.00;;;17.73;59.30
22311;BME280;11323;49.610;11.016;2023-05-02T13:34:15;98645.66;;;17.75;59.19
22311;BME280;11323;49.610;11.016;2023-05-02T13:39:15;98648.28;;;17.75;59.27
22311;BME280;11323;49.610;11.016;2023-05-02T13:44:16;98632.94;;;17.79;59.19
22311;BME280;11323;49.610;11.016;2023-05-02T13:49:16;98638.03;;;17.81;59.30
22311;BME280;11323;49.610;11.016;2023-05-02T13:54:16;98650.03;;;17.83;59.31
22311;BME280;11323;49.610;11.016;2023-05-02T13:59:17;98637.03;;;17.82;59.15
22311;BME280;11323;49.610;11.016;2023-05-02T14:04:19;98622.84;;;17.83;59.11
22311;BME280;11323;49.610;11.016;2023-05-02T14:09:19;98634.22;;;17.83;58.70
22311;BME280;11323;49.610;11.016;2023-05-02T14:14:20;98633.03;;;17.86;59.04
22311;BME280;11323;49.610;11.016;2023-05-02T14:19:20;98644.22;;;17.88;59.11
22311;BME280;11323;49.610;11.016;2023-05-02T14:24:21;98644.41;;;17.86;59.05
22311;BME280;11323;49.610;11.016;2023-05-02T14:29:21;98643.59;;;17.86;59.30
22311;BME280;11323;49.610;11.016;2023-05-02T14:34:21;98635.50;;;17.87;58.96
22311;BME280;11323;49.610;11.016;2023-05-02T14:39:25;98638.22;;;17.94;59.54
22311;BME280;11323;49.610;11.016;2023-05-02T14:44:26;98629.50;;;17.94;59.34
22311;BME280;11323;49.610;11.016;2023-05-02T14:49:27;98634.44;;;17.97;59.44
22311;BME280;11323;49.610;11.016;2023-05-02T14:54:27;98632.97;;;17.94;59.80
22311;BME280;11323;49.610;11.016;2023-05-02T14:59:30;98633.78;;;17.95;59.67
22311;BME280;11323;49.610;11.016;2023-05-02T15:04:30;98624.25;;;17.94;58.96
22311;BME280;11323;49.610;11.016;2023-05-02T15:09:30;98631.97;;;17.95;59.40
22311;BME280;11323;49.610;11.016;2023-05-02T15:14:31;98638.22;;;17.94;59.83
22311;BME280;11323;49.610;11.016;2023-05-02T15:19:31;98632.78;;;17.96;59.24
22311;BME280;11323;49.610;11.016;2023-05-02T15:24:32;98634.44;;;17.97;59.19
22311;BME280;11323;49.610;11.016;2023-05-02T15:29:32;98635.09;;;17.99;59.38
22311;BME280;11323;49.610;11.016;2023-05-02T15:34:32;98640.34;;;17.99;59.29
22311;BME280;11323;49.610;11.016;2023-05-02T15:39:33;98637.06;;;17.97;59.33
22311;BME280;11323;49.610;11.016;2023-05-02T15:44:34;98644.81;;;17.98;59.19
22311;BME280;11323;49.610;11.016;2023-05-02T15:49:35;98647.09;;;18.01;59.27
22311;BME280;11323;49.610;11.016;2023-05-02T15:54:36;98639.81;;;18.03;59.25
22311;BME280;11323;49.610;11.016;2023-05-02T15:59:38;98639.81;;;18.03;59.83
22311;BME280;11323;49.610;11.016;2023-05-02T16:04:38;98640.66;;;18.04;59.63
22311;BME280;11323;49.610;11.016;2023-05-02T16:09:39;98637.81;;;18.05;59.47
22311;BME280;11323;49.610;11.016;2023-05-02T16:14:40;98636.53;;;18.01;59.27
22311;BME280;11323;49.610;11.016;2023-05-02T16:19:41;98638.19;;;18.02;59.04
22311;BME280;11323;49.610;11.016;2023-05-02T16:24:41;98638.81;;;18.04;59.66
22311;BME280;11323;49.610;11.016;2023-05-02T16:29:41;98639.81;;;18.03;59.20
22311;BME280;11323;49.610;11.016;2023-05-02T16:34:42;98642.28;;;18.05;59.16
22311;BME280;11323;49.610;11.016;2023-05-02T16:39:42;98642.75;;;18.09;59.11
22311;BME280;11323;49.610;11.016;2023-05-02T16:44:45;98630.09;;;18.04;59.48
22311;BME280;11323;49.610;11.016;2023-05-02T16:49:45;98650.91;;;18.14;59.65
22311;BME280;11323;49.610;11.016;2023-05-02T16:54:46;98659.84;;;18.13;59.21
22311;BME280;11323;49.610;11.016;2023-05-02T16:59:48;98652.94;;;18.12;59.43
22311;BME280;11323;49.610;11.016;2023-05-02T17:04:49;98672.75;;;18.08;59.35
22311;BME280;11323;49.610;11.016;2023-05-02T17:09:49;98672.31;;;18.04;59.24
22311;BME280;11323;49.610;11.016;2023-05-02T17:14:50;98688.13;;;18.04;59.21
22311;BME280;11323;49.610;11.016;2023-05-02T17:19:50;98681.75;;;17.98;59.20
22311;BME280;11323;49.610;11.016;2023-05-02T17:24:51;98707.13;;;17.99;59.37
22311;BME280;11323;49.610;11.016;2023-05-02T17:29:53;98716.03;;;17.98;59.32
22311;BME280;11323;49.610;11.016;2023-05-02T17:34:53;98729.38;;;17.97;59.06
22311;BME280;11323;49.610;11.016;2023-05-02T17:39:53;98736.63;;;17.95;59.22
22311;BME280;11323;49.610;11.016;2023-05-02T17:44:55;98737.78;;;17.92;59.09
22311;BME280;11323;49.610;11.016;2023-05-02T17:49:55;98744.91;;;17.91;59.29
22311;BME280;11323;49.610;11.016;2023-05-02T17:54:56;98747.53;;;17.91;59.16
22311;BME280;11323;49.610;11.016;2023-05-02T17:59:57;98747.88;;;17.88;59.11
22311;BME280;11323;49.610;11.016;2023-05-02T18:04:58;98753.16;;;17.88;59.06
22311;BME280;11323;49.610;11.016;2023-05-02T18:10:00;98752.34;;;17.88;59.10
22311;BME280;11323;49.610;11.016;2023-05-02T18:15:03;98757.97;;;17.85;59.13
22311;BME280;11323;49.610;11.016;2023-05-02T18:20:05;98768.50;;;17.85;58.96
22311;BME280;11323;49.610;11.016;2023-05-02T18:25:06;98766.88;;;17.84;58.73
22311;BME280;11323;49.610;11.016;2023-05-02T18:30:07;98773.13;;;17.83;59.04
22311;BME280;11323;49.610;11.016;2023-05-02T18:35:08;98780.03;;;17.84;58.78
22311;BME280;11323;49.610;11.016;2023-05-02T18:40:12;98777.75;;;17.81;58.78
22311;BME280;11323;49.610;11.016;2023-05-02T18:45:12;98795.88;;;17.84;59.12
22311;BME280;11323;49.610;11.016;2023-05-02T18:50:12;98799.50;;;17.83;59.31
22311;BME280;11323;49.610;11.016;2023-05-02T18:55:13;98811.50;;;17.85;59.37
22311;BME280;11323;49.610;11.016;2023-05-02T19:00:16;98813.66;;;17.82;59.41
22311;BME280;11323;49.610;11.016;2023-05-02T19:05:19;98821.25;;;17.85;59.27
22311;BME280;11323;49.610;11.016;2023-05-02T19:10:19;98820.44;;;17.84;59.25
22311;BME280;11323;49.610;11.016;2023-05-02T19:15:20;98825.22;;;17.81;59.11
22311;BME280;11323;49.610;11.016;2023-05-02T19:20:21;98842.81;;;17.88;59.27
22311;BME280;11323;49.610;11.016;2023-05-02T19:25:21;98843.63;;;17.89;59.92
22311;BME280;11323;49.610;11.016;2023-05-02T19:30:22;98855.00;;;17.89;60.00
22311;BME280;11323;49.610;11.016;2023-05-02T19:35:22;98867.38;;;17.89;59.72
22311;BME280;11323;49.610;11.016;2023-05-02T19:40:23;98875.28;;;17.89;59.79
22311;BME280;11323;49.610;11.016;2023-05-02T19:45:23;98888.47;;;17.89;59.83
22311;BME280;11323;49.610;11.016;2023-05-02T19:50:24;98898.03;;;17.90;59.65
22311;BME280;11323;49.610;11.016;2023-05-02T19:55:25;98904.28;;;17.89;59.54
22311;BME280;11323;49.610;11.016;2023-05-02T20:00:25;98914.19;;;17.87;59.85
22311;BME280;11323;49.610;11.016;2023-05-02T20:05:26;98912.34;;;17.87;59.95
22311;BME280;11323;49.610;11.016;2023-05-02T20:10:26;98910.56;;;17.88;59.77
22311;BME280;11323;49.610;11.016;2023-05-02T20:15:27;98906.94;;;17.89;59.98
22311;BME280;11323;49.610;11.016;2023-05-02T20:20:29;98898.34;;;17.87;59.78
22311;BME280;11323;49.610;11.016;2023-05-02T20:25:29;98896.72;;;17.86;59.94
22311;BME280;11323;49.610;11.016;2023-05-02T20:30:30;98905.28;;;17.88;59.65
22311;BME280;11323;49.610;11.016;2023-05-02T20:35:30;98910.56;;;17.88;59.67
22311;BME280;11323;49.610;11.016;2023-05-02T20:40:31;98919.28;;;17.88;59.78
22311;BME280;11323;49.610;11.016;2023-05-02T20:45:31;98919.44;;;17.87;59.98
22311;BME280;11323;49.610;11.016;2023-05-02T20:50:32;98912.53;;;17.86;60.02
22311;BME280;11323;49.610;11.016;2023-05-02T20:55:32;98917.81;;;17.86;59.87
22311;BME280;11323;49.610;11.016;2023-05-02T21:00:36;98928.69;;;17.83;60.24
22311;BME280;11323;49.610;11.016;2023-05-02T21:05:36;98935.28;;;17.87;60.33
22311;BME280;11323;49.610;11.016;2023-05-02T21:10:36;98945.50;;;17.90;60.10
22311;BME280;11323;49.610;11.016;2023-05-02T21:15:38;98956.84;;;17.90;60.00
22311;BME280;11323;49.610;11.016;2023-05-02T21:20:38;98953.06;;;17.85;59.89
22311;BME280;11323;49.610;11.016;2023-05-02T21:25:40;98948.13;;;17.82;59.85
22311;BME280;11323;49.610;11.016;2023-05-02T21:30:40;98954.59;;;17.79;60.01
22311;BME280;11323;49.610;11.016;2023-05-02T21:35:41;98957.41;;;17.78;59.76
22311;BME280;11323;49.610;11.016;2023-05-02T21:40:42;98974.88;;;17.79;60.05
22311;BME280;11323;49.610;11.016;2023-05-02T21:45:47;98977.66;;;17.77;60.02
22311;BME280;11323;49.610;11.016;2023-05-02T21:50:47;98976.19;;;17.74;59.56
22311;BME280;11323;49.610;11.016;2023-05-02T21:55:48;98962.06;;;17.67;59.54
22311;BME280;11323;49.610;11.016;2023-05-02T22:00:48;98977.19;;;17.73;59.80
22311;BME280;11323;49.610;11.016;2023-05-02T22:05:48;98986.91;;;17.73;59.93
22311;BME280;11323;49.610;11.016;2023-05-02T22:10:49;98984.44;;;17.71;59.81
22311;BME280;11323;49.610;11.016;2023-05-02T22:15:49;99000.25;;;17.71;59.48
22311;BME280;11323;49.610;11.016;2023-05-02T22:20:50;98986.75;;;17.66;59.66
22311;BME280;11323;49.610;11.016;2023-05-02T22:25:51;98998.97;;;17.67;59.48
22311;BME280;11323;49.610;11.016;2023-05-02T22:30:51;98996.31;;;17.67;59.33
22311;BME280;11323;49.610;11.016;2023-05-02T22:35:51;98994.81;;;17.65;59.68
22311;BME280;11323;49.610;11.016;2023-05-02T22:40:52;98987.41;;;17.60;59.56
22311;BME280;11323;49.610;11.016;2023-05-02T22:45:52;98989.41;;;17.58;59.74
22311;BME280;11323;49.610;11.016;2023-05-02T22:50:53;98990.38;;;17.57;59.64
22311;BME280;11323;49.610;11.016;2023-05-02T22:55:53;98995.66;;;17.57;59.45
22311;BME280;11323;49.610;11.016;2023-05-02T23:00:53;98995.03;;;17.55;59.84
22311;BME280;11323;49.610;11.016;2023-05-02T23:05:54;98993.38;;;17.54;59.40
22311;BME280;11323;49.610;11.016;2023-05-02T23:10:54;99000.31;;;17.55;59.67
22311;BME280;11323;49.610;11.016;2023-05-02T23:15:55;98999.97;;;17.50;59.79
22311;BME280;11323;49.610;11.016;2023-05-02T23:20:56;99004.56;;;17.48;59.33
22311;BME280;11323;49.610;11.016;2023-05-02T23:25:56;99011.81;;;17.45;59.48
22311;BME280;11323;49.610;11.016;2023-05-02T23:30:57;99006.22;;;17.49;59.52
22311;BME280;11323;49.610;11.016;2023-05-02T23:35:58;99010.84;;;17.47;59.66
22311;BME280;11323;49.610;11.016;2023-05-02T23:40:58;99008.56;;;17.43;59.42
22311;BME280;11323;49.610;11.016;2023-05-02T23:45:59;99003.91;;;17.45;59.64
22311;BME280;11323;49.610;11.016;2023-05-02T23:50:59;98991.44;;;17.39;59.56
22311;BME280;11323;49.610;11.016;2023-05-02T23:55:59;98996.38;;;17.42;59.75
